sensor_id;sensor_type;location;lat;lon;timestamp;temperature;humidity
49829;DHT22;35723;51.194;5.112;2023-03-23T00:01:28;13.80;99.90
49829;DHT22;35723;51.194;5.112;2023-03-23T00:03:57;13.90;99.90
49829;DHT22;35723;51.194;5.112;2023-03-23T00:06:25;14.00;99.90
49829;DHT22;35723;51.194;5.112;2023-03-23T00:08:52;14.10;99.90
49829;DHT22;35723;51.194;5.112;2023-03-23T00:11:26;13.90;99.90
49829;DHT22;35723;51.194;5.112;2023-03-23T00:13:55;13.80;99.90
49829;DHT22;35723;51.194;5.112;2023-03-23T00:16:24;13.70;99.90
49829;DHT22;35723;51.194;5.112;2023-03-23T00:19:02;13.80;99.90
49829;DHT22;35723;51.194;5.112;2023-03-23T00:21:32;13.90;99.90
49829;DHT22;35723;51.194;5.112;2023-03-23T00:24:04;14.00;99.90
49829;DHT22;35723;51.194;5.112;2023-03-23T00:26:31;14.20;99.90
49829;DHT22;35723;51.194;5.112;2023-03-23T00:29:11;14.10;99.90
49829;DHT22;35723;51.194;5.112;2023-03-23T00:31:39;14.20;99.90
49829;DHT22;35723;51.194;5.112;2023-03-23T00:34:05;14.20;99.90
49829;DHT22;35723;51.194;5.112;2023-03-23T00:36:32;14.10;99.90
49829;DHT22;35723;51.194;5.112;2023-03-23T00:39:01;14.10;99.90
49829;DHT22;35723;51.194;5.112;2023-03-23T00:41:28;14.00;99.90
49829;DHT22;35723;51.194;5.112;2023-03-23T00:43:57;13.90;99.90
49829;DHT22;35723;51.194;5.112;2023-03-23T00:46:25;14.00;99.90
49829;DHT22;35723;51.194;5.112;2023-03-23T00:48:51;13.80;99.90
49829;DHT22;35723;51.194;5.112;2023-03-23T00:51:18;13.80;99.90
49829;DHT22;35723;51.194;5.112;2023-03-23T00:53:44;13.90;99.90
49829;DHT22;35723;51.194;5.112;2023-03-23T00:56:11;14.00;99.90
49829;DHT22;35723;51.194;5.112;2023-03-23T00:58:37;14.10;99.90
49829;DHT22;35723;51.194;5.112;2023-03-23T01:01:03;14.10;99.90
49829;DHT22;35723;51.194;5.112;2023-03-23T01:03:28;14.10;99.90
49829;DHT22;35723;51.194;5.112;2023-03-23T01:05:55;14.20;99.90
49829;DHT22;35723;51.194;5.112;2023-03-23T01:08:21;14.20;99.90
49829;DHT22;35723;51.194;5.112;2023-03-23T01:10:48;14.30;99.90
49829;DHT22;35723;51.194;5.112;2023-03-23T01:13:14;14.20;99.90
49829;DHT22;35723;51.194;5.112;2023-03-23T01:15:40;14.10;99.90
49829;DHT22;35723;51.194;5.112;2023-03-23T01:18:06;14.00;99.90
49829;DHT22;35723;51.194;5.112;2023-03-23T01:20:32;14.10;99.90
49829;DHT22;35723;51.194;5.112;2023-03-23T01:22:58;13.90;99.90
49829;DHT22;35723;51.194;5.112;2023-03-23T01:25:31;14.00;99.90
49829;DHT22;35723;51.194;5.112;2023-03-23T01:27:57;14.00;99.90
49829;DHT22;35723;51.194;5.112;2023-03-23T01:30:23;14.10;99.90
49829;DHT22;35723;51.194;5.112;2023-03-23T01:32:49;14.00;99.90
49829;DHT22;35723;51.194;5.112;2023-03-23T01:35:15;14.00;99.90
49829;DHT22;35723;51.194;5.112;2023-03-23T01:37:41;13.90;99.90
49829;DHT22;35723;51.194;5.112;2023-03-23T01:40:07;13.90;99.90
49829;DHT22;35723;51.194;5.112;2023-03-23T01:42:35;14.00;99.90
49829;DHT22;35723;51.194;5.112;2023-03-23T01:50:36;14.00;99.90
49829;DHT22;35723;51.194;5.112;2023-03-23T01:53:05;14.00;99.90
49829;DHT22;35723;51.194;5.112;2023-03-23T01:55:34;14.10;99.90
49829;DHT22;35723;51.194;5.112;2023-03-23T01:58:02;14.10;99.90
49829;DHT22;35723;51.194;5.112;2023-03-23T02:00:29;14.10;99.90
49829;DHT22;35723;51.194;5.112;2023-03-23T02:02:56;14.10;99.90
49829;DHT22;35723;51.194;5.112;2023-03-23T02:05:32;14.10;99.90
49829;DHT22;35723;51.194;5.112;2023-03-23T02:08:00;14.10;99.90
49829;DHT22;35723;51.194;5.112;2023-03-23T02:10:29;14.10;99.90
49829;DHT22;35723;51.194;5.112;2023-03-23T02:12:56;14.00;99.90
49829;DHT22;35723;51.194;5.112;2023-03-23T02:15:25;14.10;99.90
49829;DHT22;35723;51.194;5.112;2023-03-23T02:20:33;14.20;99.90
49829;DHT22;35723;51.194;5.112;2023-03-23T02:23:25;14.20;99.90
49829;DHT22;35723;51.194;5.112;2023-03-23T02:34:29;14.00;99.90
49829;DHT22;35723;51.194;5.112;2023-03-23T02:37:07;14.00;99.90
49829;DHT22;35723;51.194;5.112;2023-03-23T02:39:39;14.10;99.90
49829;DHT22;35723;51.194;5.112;2023-03-23T02:42:09;14.00;99.90
49829;DHT22;35723;51.194;5.112;2023-03-23T02:44:38;14.10;99.90
49829;DHT22;35723;51.194;5.112;2023-03-23T02:47:09;14.10;99.90
49829;DHT22;35723;51.194;5.112;2023-03-23T02:49:38;14.30;99.90
49829;DHT22;35723;51.194;5.112;2023-03-23T02:52:10;14.30;99.90
49829;DHT22;35723;51.194;5.112;2023-03-23T02:54:40;14.40;99.90
49829;DHT22;35723;51.194;5.112;2023-03-23T02:57:08;14.30;99.90
49829;DHT22;35723;51.194;5.112;2023-03-23T02:59:34;14.30;99.90
49829;DHT22;35723;51.194;5.112;2023-03-23T03:04:28;14.10;99.90
49829;DHT22;35723;51.194;5.112;2023-03-23T03:10:06;14.20;99.90
49829;DHT22;35723;51.194;5.112;2023-03-23T03:17:43;14.30;99.90
49829;DHT22;35723;51.194;5.112;2023-03-23T03:20:10;14.20;99.90
49829;DHT22;35723;51.194;5.112;2023-03-23T03:22:40;14.20;99.90
49829;DHT22;35723;51.194;5.112;2023-03-23T03:25:11;14.20;99.90
49829;DHT22;35723;51.194;5.112;2023-03-23T03:27:43;14.10;99.90
49829;DHT22;35723;51.194;5.112;2023-03-23T03:30:12;14.10;99.90
49829;DHT22;35723;51.194;5.112;2023-03-23T03:32:47;14.20;99.90
49829;DHT22;35723;51.194;5.112;2023-03-23T03:35:14;14.10;99.90
49829;DHT22;35723;51.194;5.112;2023-03-23T03:37:41;14.10;99.90
49829;DHT22;35723;51.194;5.112;2023-03-23T03:40:10;14.10;99.90
49829;DHT22;35723;51.194;5.112;2023-03-23T03:42:46;14.20;99.90
49829;DHT22;35723;51.194;5.112;2023-03-23T03:45:15;14.10;99.90
49829;DHT22;35723;51.194;5.112;2023-03-23T03:47:41;14.00;99.90
49829;DHT22;35723;51.194;5.112;2023-03-23T03:50:07;14.10;99.90
49829;DHT22;35723;51.194;5.112;2023-03-23T03:52:34;14.10;99.90
49829;DHT22;35723;51.194;5.112;2023-03-23T03:55:00;14.10;99.90
49829;DHT22;35723;51.194;5.112;2023-03-23T03:57:26;14.00;99.90
49829;DHT22;35723;51.194;5.112;2023-03-23T03:59:52;14.00;99.90
49829;DHT22;35723;51.194;5.112;2023-03-23T04:02:18;14.00;99.90
49829;DHT22;35723;51.194;5.112;2023-03-23T04:04:49;14.10;99.90
49829;DHT22;35723;51.194;5.112;2023-03-23T04:07:17;14.10;99.90
49829;DHT22;35723;51.194;5.112;2023-03-23T04:09:46;14.20;99.90
49829;DHT22;35723;51.194;5.112;2023-03-23T04:12:14;14.10;99.90
49829;DHT22;35723;51.194;5.112;2023-03-23T04:14:40;14.10;99.90
49829;DHT22;35723;51.194;5.112;2023-03-23T04:17:05;14.10;99.90
49829;DHT22;35723;51.194;5.112;2023-03-23T04:19:32;14.20;99.90
49829;DHT22;35723;51.194;5.112;2023-03-23T04:21:59;14.10;99.90
49829;DHT22;35723;51.194;5.112;2023-03-23T04:24:25;14.20;99.90
49829;DHT22;35723;51.194;5.112;2023-03-23T04:26:53;14.00;99.90
49829;DHT22;35723;51.194;5.112;2023-03-23T04:29:19;14.10;99.90
49829;DHT22;35723;51.194;5.112;2023-03-23T04:31:45;14.00;99.90
49829;DHT22;35723;51.194;5.112;2023-03-23T04:34:11;14.00;99.90
49829;DHT22;35723;51.194;5.112;2023-03-23T04:36:39;13.90;99.90
49829;DHT22;35723;51.194;5.112;2023-03-23T04:39:06;14.00;99.90
49829;DHT22;35723;51.194;5.112;2023-03-23T04:41:36;14.10;99.90
49829;DHT22;35723;51.194;5.112;2023-03-23T04:44:01;14.10;99.90
49829;DHT22;35723;51.194;5.112;2023-03-23T04:46:29;14.10;99.90
49829;DHT22;35723;51.194;5.112;2023-03-23T04:48:55;14.10;99.90
49829;DHT22;35723;51.194;5.112;2023-03-23T04:51:24;14.20;99.90
49829;DHT22;35723;51.194;5.112;2023-03-23T04:53:52;14.20;99.90
49829;DHT22;35723;51.194;5.112;2023-03-23T04:56:18;14.20;99.90
49829;DHT22;35723;51.194;5.112;2023-03-23T04:58:44;14.20;99.90
49829;DHT22;35723;51.194;5.112;2023-03-23T05:01:10;14.00;99.90
49829;DHT22;35723;51.194;5.112;2023-03-23T05:03:39;13.90;99.90
49829;DHT22;35723;51.194;5.112;2023-03-23T05:06:06;13.80;99.90
49829;DHT22;35723;51.194;5.112;2023-03-23T05:08:32;13.70;99.90
49829;DHT22;35723;51.194;5.112;2023-03-23T05:10:59;13.80;99.90
49829;DHT22;35723;51.194;5.112;2023-03-23T05:13:25;13.80;99.90
49829;DHT22;35723;51.194;5.112;2023-03-23T05:15:52;13.90;99.90
49829;DHT22;35723;51.194;5.112;2023-03-23T05:18:17;13.90;99.90
49829;DHT22;35723;51.194;5.112;2023-03-23T05:20:45;13.80;99.90
49829;DHT22;35723;51.194;5.112;2023-03-23T05:23:11;13.80;99.90
49829;DHT22;35723;51.194;5.112;2023-03-23T05:25:38;13.70;99.90
49829;DHT22;35723;51.194;5.112;2023-03-23T05:28:08;13.60;99.90
49829;DHT22;35723;51.194;5.112;2023-03-23T05:30:36;13.80;99.90
49829;DHT22;35723;51.194;5.112;2023-03-23T05:33:03;13.80;99.90
49829;DHT22;35723;51.194;5.112;2023-03-23T05:35:30;13.90;99.90
49829;DHT22;35723;51.194;5.112;2023-03-23T05:37:56;13.90;99.90
49829;DHT22;35723;51.194;5.112;2023-03-23T05:40:22;13.80;99.90
49829;DHT22;35723;51.194;5.112;2023-03-23T05:42:51;13.80;99.90
49829;DHT22;35723;51.194;5.112;2023-03-23T05:45:17;13.80;99.90
49829;DHT22;35723;51.194;5.112;2023-03-23T05:47:43;13.80;99.90
49829;DHT22;35723;51.194;5.112;2023-03-23T05:50:09;13.90;99.90
49829;DHT22;35723;51.194;5.112;2023-03-23T05:52:36;13.90;99.90
49829;DHT22;35723;51.194;5.112;2023-03-23T05:55:03;13.70;99.90
49829;DHT22;35723;51.194;5.112;2023-03-23T05:57:30;13.80;99.90
49829;DHT22;35723;51.194;5.112;2023-03-23T05:59:56;14.00;99.90
49829;DHT22;35723;51.194;5.112;2023-03-23T06:02:23;13.90;99.90
49829;DHT22;35723;51.194;5.112;2023-03-23T06:04:50;13.80;99.90
49829;DHT22;35723;51.194;5.112;2023-03-23T06:07:16;13.70;99.90
49829;DHT22;35723;51.194;5.112;2023-03-23T06:09:42;13.80;99.90
49829;DHT22;35723;51.194;5.112;2023-03-23T06:12:09;13.90;99.90
49829;DHT22;35723;51.194;5.112;2023-03-23T06:14:36;13.90;99.90
49829;DHT22;35723;51.194;5.112;2023-03-23T06:17:02;13.80;99.90
49829;DHT22;35723;51.194;5.112;2023-03-23T06:19:28;13.90;99.90
49829;DHT22;35723;51.194;5.112;2023-03-23T06:21:57;13.90;99.90
49829;DHT22;35723;51.194;5.112;2023-03-23T06:24:22;13.80;99.90
49829;DHT22;35723;51.194;5.112;2023-03-23T06:26:48;13.80;99.90
49829;DHT22;35723;51.194;5.112;2023-03-23T06:29:15;13.80;99.90
49829;DHT22;35723;51.194;5.112;2023-03-23T06:31:48;13.60;99.90
49829;DHT22;35723;51.194;5.112;2023-03-23T06:34:14;13.60;99.90
49829;DHT22;35723;51.194;5.112;2023-03-23T06:36:40;13.70;99.90
49829;DHT22;35723;51.194;5.112;2023-03-23T06:39:09;13.70;99.90
49829;DHT22;35723;51.194;5.112;2023-03-23T06:41:35;13.80;99.90
49829;DHT22;35723;51.194;5.112;2023-03-23T06:44:00;13.80;99.90
49829;DHT22;35723;51.194;5.112;2023-03-23T06:46:27;13.70;99.90
49829;DHT22;35723;51.194;5.112;2023-03-23T06:48:53;13.60;99.90
49829;DHT22;35723;51.194;5.112;2023-03-23T06:51:19;13.70;99.90
49829;DHT22;35723;51.194;5.112;2023-03-23T06:53:45;13.70;99.90
49829;DHT22;35723;51.194;5.112;2023-03-23T06:56:11;13.80;99.90
49829;DHT22;35723;51.194;5.112;2023-03-23T06:58:38;13.70;99.90
49829;DHT22;35723;51.194;5.112;2023-03-23T07:01:04;13.70;99.90
49829;DHT22;35723;51.194;5.112;2023-03-23T07:03:30;13.70;99.90
49829;DHT22;35723;51.194;5.112;2023-03-23T07:05:57;13.80;99.90
49829;DHT22;35723;51.194;5.112;2023-03-23T07:08:23;13.90;99.90
49829;DHT22;35723;51.194;5.112;2023-03-23T07:10:53;13.80;99.90
49829;DHT22;35723;51.194;5.112;2023-03-23T07:13:20;13.80;99.90
49829;DHT22;35723;51.194;5.112;2023-03-23T07:15:46;13.70;99.90
49829;DHT22;35723;51.194;5.112;2023-03-23T07:18:12;13.70;99.90
49829;DHT22;35723;51.194;5.112;2023-03-23T07:20:37;13.80;99.90
49829;DHT22;35723;51.194;5.112;2023-03-23T07:23:03;13.80;99.90
49829;DHT22;35723;51.194;5.112;2023-03-23T07:25:32;13.80;99.90
49829;DHT22;35723;51.194;5.112;2023-03-23T07:27:59;13.80;99.90
49829;DHT22;35723;51.194;5.112;2023-03-23T07:30:25;13.90;99.90
49829;DHT22;35723;51.194;5.112;2023-03-23T07:32:52;13.70;99.90
49829;DHT22;35723;51.194;5.112;2023-03-23T07:35:18;13.60;99.90
49829;DHT22;35723;51.194;5.112;2023-03-23T07:37:44;13.40;99.90
49829;DHT22;35723;51.194;5.112;2023-03-23T07:40:11;13.30;99.90
49829;DHT22;35723;51.194;5.112;2023-03-23T07:42:44;13.40;99.90
49829;DHT22;35723;51.194;5.112;2023-03-23T07:45:13;13.30;99.90
49829;DHT22;35723;51.194;5.112;2023-03-23T07:47:39;13.30;99.90
49829;DHT22;35723;51.194;5.112;2023-03-23T07:50:06;13.10;99.90
49829;DHT22;35723;51.194;5.112;2023-03-23T07:52:33;13.00;99.90
49829;DHT22;35723;51.194;5.112;2023-03-23T07:54:59;12.90;99.90
49829;DHT22;35723;51.194;5.112;2023-03-23T07:57:27;12.80;99.90
49829;DHT22;35723;51.194;5.112;2023-03-23T07:59:53;12.80;99.90
49829;DHT22;35723;51.194;5.112;2023-03-23T08:02:19;12.80;99.90
49829;DHT22;35723;51.194;5.112;2023-03-23T08:04:45;12.90;99.90
49829;DHT22;35723;51.194;5.112;2023-03-23T08:07:11;12.90;99.90
49829;DHT22;35723;51.194;5.112;2023-03-23T08:09:38;12.90;99.90
49829;DHT22;35723;51.194;5.112;2023-03-23T08:12:05;12.90;99.90
49829;DHT22;35723;51.194;5.112;2023-03-23T08:14:30;12.70;99.90
49829;DHT22;35723;51.194;5.112;2023-03-23T08:16:56;12.70;99.90
49829;DHT22;35723;51.194;5.112;2023-03-23T08:19:22;12.50;99.90
49829;DHT22;35723;51.194;5.112;2023-03-23T08:21:48;12.60;99.90
49829;DHT22;35723;51.194;5.112;2023-03-23T08:24:15;12.70;99.90
49829;DHT22;35723;51.194;5.112;2023-03-23T08:26:40;12.90;99.90
49829;DHT22;35723;51.194;5.112;2023-03-23T08:29:07;12.80;99.90
49829;DHT22;35723;51.194;5.112;2023-03-23T08:31:34;12.80;99.90
49829;DHT22;35723;51.194;5.112;2023-03-23T08:34:04;12.80;99.90
49829;DHT22;35723;51.194;5.112;2023-03-23T08:36:34;12.90;99.90
49829;DHT22;35723;51.194;5.112;2023-03-23T08:39:00;12.90;99.90
49829;DHT22;35723;51.194;5.112;2023-03-23T08:41:26;12.90;99.90
49829;DHT22;35723;51.194;5.112;2023-03-23T08:43:51;13.00;99.90
49829;DHT22;35723;51.194;5.112;2023-03-23T08:46:20;12.80;99.90
49829;DHT22;35723;51.194;5.112;2023-03-23T08:48:46;12.90;99.90
49829;DHT22;35723;51.194;5.112;2023-03-23T08:51:12;13.00;99.90
49829;DHT22;35723;51.194;5.112;2023-03-23T08:53:38;13.00;99.90
49829;DHT22;35723;51.194;5.112;2023-03-23T08:56:09;13.00;99.90
49829;DHT22;35723;51.194;5.112;2023-03-23T08:58:36;12.90;99.90
49829;DHT22;35723;51.194;5.112;2023-03-23T09:01:03;12.90;99.90
49829;DHT22;35723;51.194;5.112;2023-03-23T09:03:29;12.80;99.90
49829;DHT22;35723;51.194;5.112;2023-03-23T09:06:02;12.80;99.90
49829;DHT22;35723;51.194;5.112;2023-03-23T09:08:28;12.90;99.90
49829;DHT22;35723;51.194;5.112;2023-03-23T09:11:02;12.80;99.90
49829;DHT22;35723;51.194;5.112;2023-03-23T09:13:28;12.90;99.90
49829;DHT22;35723;51.194;5.112;2023-03-23T09:15:53;12.80;99.90
49829;DHT22;35723;51.194;5.112;2023-03-23T09:18:20;12.80;99.90
49829;DHT22;35723;51.194;5.112;2023-03-23T09:20:46;12.90;99.90
49829;DHT22;35723;51.194;5.112;2023-03-23T09:23:12;12.90;99.90
49829;DHT22;35723;51.194;5.112;2023-03-23T09:25:38;12.90;99.90
49829;DHT22;35723;51.194;5.112;2023-03-23T09:28:04;13.00;99.90
49829;DHT22;35723;51.194;5.112;2023-03-23T09:30:32;13.10;99.90
49829;DHT22;35723;51.194;5.112;2023-03-23T09:33:00;13.10;99.90
49829;DHT22;35723;51.194;5.112;2023-03-23T09:35:29;13.00;99.90
49829;DHT22;35723;51.194;5.112;2023-03-23T09:37:57;13.00;99.90
49829;DHT22;35723;51.194;5.112;2023-03-23T09:40:29;13.10;99.90
49829;DHT22;35723;51.194;5.112;2023-03-23T09:48:38;13.10;99.90
49829;DHT22;35723;51.194;5.112;2023-03-23T09:53:40;13.10;99.90
49829;DHT22;35723;51.194;5.112;2023-03-23T09:56:13;13.10;99.90
49829;DHT22;35723;51.194;5.112;2023-03-23T09:58:53;13.30;99.90
49829;DHT22;35723;51.194;5.112;2023-03-23T10:01:37;13.40;99.90
49829;DHT22;35723;51.194;5.112;2023-03-23T10:04:14;13.30;99.90
49829;DHT22;35723;51.194;5.112;2023-03-23T10:06:41;13.30;99.90
49829;DHT22;35723;51.194;5.112;2023-03-23T10:09:12;13.30;99.90
49829;DHT22;35723;51.194;5.112;2023-03-23T10:17:37;13.60;99.90
49829;DHT22;35723;51.194;5.112;2023-03-23T10:20:28;13.70;99.90
49829;DHT22;35723;51.194;5.112;2023-03-23T10:25:29;13.90;99.90
49829;DHT22;35723;51.194;5.112;2023-03-23T10:30:48;13.90;99.90
49829;DHT22;35723;51.194;5.112;2023-03-23T10:38:23;13.90;99.90
49829;DHT22;35723;51.194;5.112;2023-03-23T10:41:03;14.00;99.90
49829;DHT22;35723;51.194;5.112;2023-03-23T10:43:31;14.10;99.90
49829;DHT22;35723;51.194;5.112;2023-03-23T10:46:01;14.20;99.90
49829;DHT22;35723;51.194;5.112;2023-03-23T10:48:35;14.10;99.90
49829;DHT22;35723;51.194;5.112;2023-03-23T10:51:04;14.20;99.90
49829;DHT22;35723;51.194;5.112;2023-03-23T10:53:42;14.20;99.90
49829;DHT22;35723;51.194;5.112;2023-03-23T10:56:22;14.20;99.90
49829;DHT22;35723;51.194;5.112;2023-03-23T10:58:49;14.40;99.90
49829;DHT22;35723;51.194;5.112;2023-03-23T11:01:18;14.50;99.90
49829;DHT22;35723;51.194;5.112;2023-03-23T11:03:47;14.60;99.90
49829;DHT22;35723;51.194;5.112;2023-03-23T11:06:43;14.50;99.90
49829;DHT22;35723;51.194;5.112;2023-03-23T11:09:16;14.50;99.90
49829;DHT22;35723;51.194;5.112;2023-03-23T11:11:53;14.60;99.90
49829;DHT22;35723;51.194;5.112;2023-03-23T11:14:30;14.60;99.90
49829;DHT22;35723;51.194;5.112;2023-03-23T11:16:57;14.60;99.90
49829;DHT22;35723;51.194;5.112;2023-03-23T11:19:30;14.40;99.90
49829;DHT22;35723;51.194;5.112;2023-03-23T11:24:34;14.50;99.90
49829;DHT22;35723;51.194;5.112;2023-03-23T11:27:03;14.50;99.90
49829;DHT22;35723;51.194;5.112;2023-03-23T11:29:32;14.60;99.90
49829;DHT22;35723;51.194;5.112;2023-03-23T11:34:33;14.70;99.90
49829;DHT22;35723;51.194;5.112;2023-03-23T11:37:31;14.80;99.90
49829;DHT22;35723;51.194;5.112;2023-03-23T11:39:59;14.80;99.90
49829;DHT22;35723;51.194;5.112;2023-03-23T11:42:38;14.80;99.90
49829;DHT22;35723;51.194;5.112;2023-03-23T11:45:21;14.80;99.90
49829;DHT22;35723;51.194;5.112;2023-03-23T11:50:26;14.60;99.90
49829;DHT22;35723;51.194;5.112;2023-03-23T11:53:14;14.40;99.90
49829;DHT22;35723;51.194;5.112;2023-03-23T11:58:15;14.70;99.90
49829;DHT22;35723;51.194;5.112;2023-03-23T12:01:02;14.80;99.90
49829;DHT22;35723;51.194;5.112;2023-03-23T12:06:44;15.00;99.90
49829;DHT22;35723;51.194;5.112;2023-03-23T12:14:46;15.30;99.90
49829;DHT22;35723;51.194;5.112;2023-03-23T12:45:21;16.10;99.90
49829;DHT22;35723;51.194;5.112;2023-03-23T12:48:00;16.00;99.90
49829;DHT22;35723;51.194;5.112;2023-03-23T12:50:41;16.10;99.90
49829;DHT22;35723;51.194;5.112;2023-03-23T12:53:16;16.20;99.90
49829;DHT22;35723;51.194;5.112;2023-03-23T12:55:46;16.30;99.90
49829;DHT22;35723;51.194;5.112;2023-03-23T12:58:19;16.20;99.90
49829;DHT22;35723;51.194;5.112;2023-03-23T13:03:27;16.20;99.90
49829;DHT22;35723;51.194;5.112;2023-03-23T13:09:35;16.20;99.90
49829;DHT22;35723;51.194;5.112;2023-03-23T13:12:03;16.30;99.90
49829;DHT22;35723;51.194;5.112;2023-03-23T13:22:55;16.50;99.90
49829;DHT22;35723;51.194;5.112;2023-03-23T13:25:19;16.60;99.90
49829;DHT22;35723;51.194;5.112;2023-03-23T13:27:59;16.60;99.90
49829;DHT22;35723;51.194;5.112;2023-03-23T13:30:27;16.50;99.90
49829;DHT22;35723;51.194;5.112;2023-03-23T13:33:05;16.40;99.90
49829;DHT22;35723;51.194;5.112;2023-03-23T13:35:36;16.50;99.90
49829;DHT22;35723;51.194;5.112;2023-03-23T13:40:45;16.60;99.90
49829;DHT22;35723;51.194;5.112;2023-03-23T13:43:11;16.60;99.90
49829;DHT22;35723;51.194;5.112;2023-03-23T13:45:44;16.60;99.90
49829;DHT22;35723;51.194;5.112;2023-03-23T13:53:29;16.70;99.90
49829;DHT22;35723;51.194;5.112;2023-03-23T13:59:16;16.60;99.90
49829;DHT22;35723;51.194;5.112;2023-03-23T14:01:42;16.60;99.90
49829;DHT22;35723;51.194;5.112;2023-03-23T14:04:16;16.70;99.90
49829;DHT22;35723;51.194;5.112;2023-03-23T14:06:44;16.80;99.90
49829;DHT22;35723;51.194;5.112;2023-03-23T14:09:47;16.80;99.90
49829;DHT22;35723;51.194;5.112;2023-03-23T14:12:25;16.90;99.90
49829;DHT22;35723;51.194;5.112;2023-03-23T14:14:58;16.80;99.90
49829;DHT22;35723;51.194;5.112;2023-03-23T14:17:28;16.80;99.90
49829;DHT22;35723;51.194;5.112;2023-03-23T14:19:57;16.80;99.90
49829;DHT22;35723;51.194;5.112;2023-03-23T14:22:41;16.80;99.90
49829;DHT22;35723;51.194;5.112;2023-03-23T14:25:17;16.80;99.90
49829;DHT22;35723;51.194;5.112;2023-03-23T14:27:44;16.80;99.90
49829;DHT22;35723;51.194;5.112;2023-03-23T14:30:16;16.80;99.90
49829;DHT22;35723;51.194;5.112;2023-03-23T14:32:42;16.90;99.90
49829;DHT22;35723;51.194;5.112;2023-03-23T14:35:19;17.00;99.90
49829;DHT22;35723;51.194;5.112;2023-03-23T14:37:46;17.20;99.90
49829;DHT22;35723;51.194;5.112;2023-03-23T14:40:15;17.10;99.90
49829;DHT22;35723;51.194;5.112;2023-03-23T14:42:42;17.10;99.90
49829;DHT22;35723;51.194;5.112;2023-03-23T14:45:15;17.00;99.90
49829;DHT22;35723;51.194;5.112;2023-03-23T14:47:50;17.00;99.90
49829;DHT22;35723;51.194;5.112;2023-03-23T14:50:48;17.00;99.90
49829;DHT22;35723;51.194;5.112;2023-03-23T14:53:25;17.20;99.90
49829;DHT22;35723;51.194;5.112;2023-03-23T14:55:53;17.00;99.90
49829;DHT22;35723;51.194;5.112;2023-03-23T14:58:22;17.00;99.90
49829;DHT22;35723;51.194;5.112;2023-03-23T15:01:13;17.00;99.90
49829;DHT22;35723;51.194;5.112;2023-03-23T15:03:43;16.80;99.90
49829;DHT22;35723;51.194;5.112;2023-03-23T15:06:14;16.60;99.90
49829;DHT22;35723;51.194;5.112;2023-03-23T15:08:40;16.70;99.90
49829;DHT22;35723;51.194;5.112;2023-03-23T15:11:22;16.70;99.90
49829;DHT22;35723;51.194;5.112;2023-03-23T15:14:00;16.90;99.90
49829;DHT22;35723;51.194;5.112;2023-03-23T15:16:33;16.90;99.90
49829;DHT22;35723;51.194;5.112;2023-03-23T15:19:25;16.90;99.90
49829;DHT22;35723;51.194;5.112;2023-03-23T15:22:03;16.80;99.90
49829;DHT22;35723;51.194;5.112;2023-03-23T15:24:38;16.80;99.90
49829;DHT22;35723;51.194;5.112;2023-03-23T15:30:28;16.70;99.90
49829;DHT22;35723;51.194;5.112;2023-03-23T15:32:59;16.60;99.90
49829;DHT22;35723;51.194;5.112;2023-03-23T15:35:25;16.60;99.90
49829;DHT22;35723;51.194;5.112;2023-03-23T15:37:57;16.60;99.90
49829;DHT22;35723;51.194;5.112;2023-03-23T15:40:25;16.50;99.90
49829;DHT22;35723;51.194;5.112;2023-03-23T15:43:07;16.50;99.90
49829;DHT22;35723;51.194;5.112;2023-03-23T15:45:33;16.40;99.90
49829;DHT22;35723;51.194;5.112;2023-03-23T15:48:12;16.50;99.90
49829;DHT22;35723;51.194;5.112;2023-03-23T15:50:40;16.50;99.90
49829;DHT22;35723;51.194;5.112;2023-03-23T15:53:31;16.50;99.90
49829;DHT22;35723;51.194;5.112;2023-03-23T15:56:02;16.40;99.90
49829;DHT22;35723;51.194;5.112;2023-03-23T15:58:28;16.20;99.90
49829;DHT22;35723;51.194;5.112;2023-03-23T16:00:55;16.10;99.90
49829;DHT22;35723;51.194;5.112;2023-03-23T16:03:49;16.00;99.90
49829;DHT22;35723;51.194;5.112;2023-03-23T16:06:17;16.00;99.90
49829;DHT22;35723;51.194;5.112;2023-03-23T16:08:43;16.00;99.90
49829;DHT22;35723;51.194;5.112;2023-03-23T16:11:11;16.10;99.90
49829;DHT22;35723;51.194;5.112;2023-03-23T16:13:37;16.30;99.90
49829;DHT22;35723;51.194;5.112;2023-03-23T16:16:04;16.30;99.90
49829;DHT22;35723;51.194;5.112;2023-03-23T16:18:30;16.30;99.90
49829;DHT22;35723;51.194;5.112;2023-03-23T16:20:56;16.20;99.90
49829;DHT22;35723;51.194;5.112;2023-03-23T16:23:22;16.10;99.90
49829;DHT22;35723;51.194;5.112;2023-03-23T16:25:48;16.10;99.90
49829;DHT22;35723;51.194;5.112;2023-03-23T16:28:14;15.80;99.90
49829;DHT22;35723;51.194;5.112;2023-03-23T16:30:42;15.80;99.90
49829;DHT22;35723;51.194;5.112;2023-03-23T16:33:07;15.90;99.90
49829;DHT22;35723;51.194;5.112;2023-03-23T16:35:33;15.80;99.90
49829;DHT22;35723;51.194;5.112;2023-03-23T16:38:00;15.60;99.90
49829;DHT22;35723;51.194;5.112;2023-03-23T16:40:25;15.70;99.90
49829;DHT22;35723;51.194;5.112;2023-03-23T16:42:52;15.80;99.90
49829;DHT22;35723;51.194;5.112;2023-03-23T16:45:18;15.90;99.90
49829;DHT22;35723;51.194;5.112;2023-03-23T16:47:44;15.90;99.90
49829;DHT22;35723;51.194;5.112;2023-03-23T16:50:12;15.80;99.90
49829;DHT22;35723;51.194;5.112;2023-03-23T16:52:39;15.80;99.90
49829;DHT22;35723;51.194;5.112;2023-03-23T16:55:06;15.80;99.90
49829;DHT22;35723;51.194;5.112;2023-03-23T16:57:33;15.80;99.90
49829;DHT22;35723;51.194;5.112;2023-03-23T17:00:06;15.80;99.90
49829;DHT22;35723;51.194;5.112;2023-03-23T17:02:33;15.70;99.90
49829;DHT22;35723;51.194;5.112;2023-03-23T17:05:00;15.70;99.90
49829;DHT22;35723;51.194;5.112;2023-03-23T17:07:26;15.80;99.90
49829;DHT22;35723;51.194;5.112;2023-03-23T17:09:52;15.80;99.90
49829;DHT22;35723;51.194;5.112;2023-03-23T17:12:18;15.70;99.90
49829;DHT22;35723;51.194;5.112;2023-03-23T17:14:44;15.70;99.90
49829;DHT22;35723;51.194;5.112;2023-03-23T17:17:10;15.80;99.90
49829;DHT22;35723;51.194;5.112;2023-03-23T17:19:36;15.80;99.90
49829;DHT22;35723;51.194;5.112;2023-03-23T17:22:02;15.80;99.90
49829;DHT22;35723;51.194;5.112;2023-03-23T17:24:28;15.90;99.90
49829;DHT22;35723;51.194;5.112;2023-03-23T17:26:54;15.80;99.90
49829;DHT22;35723;51.194;5.112;2023-03-23T17:29:20;15.70;99.90
49829;DHT22;35723;51.194;5.112;2023-03-23T17:31:47;15.60;99.90
49829;DHT22;35723;51.194;5.112;2023-03-23T17:34:13;15.70;99.90
49829;DHT22;35723;51.194;5.112;2023-03-23T17:36:39;15.60;99.90
49829;DHT22;35723;51.194;5.112;2023-03-23T17:39:05;15.70;99.90
49829;DHT22;35723;51.194;5.112;2023-03-23T17:41:31;15.70;99.90
49829;DHT22;35723;51.194;5.112;2023-03-23T17:43:56;15.90;99.90
49829;DHT22;35723;51.194;5.112;2023-03-23T17:46:22;15.70;99.90
49829;DHT22;35723;51.194;5.112;2023-03-23T17:48:48;15.70;99.90
49829;DHT22;35723;51.194;5.112;2023-03-23T17:51:13;16.00;99.90